Time;durP1;ratioP1;P1;durP2;ratioP2;P2;SDS_P1;SDS_P2;PMS_P1;PMS_P2;Temp;Humidity;BMP_temperature;BMP_pressure;BME280_temperature;BME280_humidity;BME280_pressure;Samples;Min_cycle;Max_cycle;Signal;HPM_P1;HPM_P2
2023/08/21 00:00:41;;;;;;;4.53;1.35;;;;;;;;;;5133647;27;20043;-60
2023/08/21 00:03:08;;;;;;;2.20;1.30;;;;;;;;;;5133405;27;20058;-60
2023/08/21 00:05:35;;;;;;;4.53;1.77;;;;;;;;;;5132664;27;20396;-59
2023/08/21 00:08:01;;;;;;;1.90;1.00;;;;;;;;;;5133512;27;20054;-60
2023/08/21 00:10:28;;;;;;;1.92;1.40;;;;;;;;;;5133318;27;20047;-60
2023/08/21 00:12:55;;;;;;;2.15;1.13;;;;;;;;;;5133447;28;20408;-60
2023/08/21 00:15:22;;;;;;;1.42;1.00;;;;;;;;;;5133364;28;20400;-60
2023/08/21 00:17:50;;;;;;;1.75;0.90;;;;;;;;;;5133359;28;20047;-61
2023/08/21 00:20:18;;;;;;;1.70;1.10;;;;;;;;;;5133466;28;20396;-60
2023/08/21 00:22:45;;;;;;;3.55;1.58;;;;;;;;;;5132969;28;20515;-60
2023/08/21 00:25:12;;;;;;;3.08;1.35;;;;;;;;;;5133294;28;20059;-60
2023/08/21 00:27:38;;;;;;;2.67;0.90;;;;;;;;;;5133296;28;20051;-60
2023/08/21 00:30:06;;;;;;;1.55;0.88;;;;;;;;;;5133180;28;20058;-59
2023/08/21 00:32:33;;;;;;;1.50;0.90;;;;;;;;;;5133201;28;20372;-59
2023/08/21 00:35:01;;;;;;;2.03;1.33;;;;;;;;;;5132832;28;20055;-60
2023/08/21 00:37:27;;;;;;;2.85;1.75;;;;;;;;;;5133239;28;20526;-59
2023/08/21 00:39:54;;;;;;;1.73;1.13;;;;;;;;;;5132935;28;20058;-60
2023/08/21 00:42:21;;;;;;;2.70;1.52;;;;;;;;;;5132874;28;20112;-58
2023/08/21 00:44:48;;;;;;;2.08;1.30;;;;;;;;;;5133007;28;20054;-60
2023/08/21 00:47:14;;;;;;;2.85;1.30;;;;;;;;;;5132830;28;20066;-60
2023/08/21 00:49:41;;;;;;;2.40;0.90;;;;;;;;;;5132885;28;20047;-60
2023/08/21 00:52:11;;;;;;;1.58;0.85;;;;;;;;;;5132788;28;20055;-60
2023/08/21 00:54:38;;;;;;;3.10;1.23;;;;;;;;;;5132636;28;20484;-60
2023/08/21 00:57:05;;;;;;;1.50;0.80;;;;;;;;;;5132884;28;20051;-60
2023/08/21 00:59:32;;;;;;;2.05;1.25;;;;;;;;;;5133098;28;20058;-60
2023/08/21 01:01:59;;;;;;;2.45;1.00;;;;;;;;;;5132752;28;20047;-60
2023/08/21 01:04:26;;;;;;;3.97;1.25;;;;;;;;;;5132582;28;20058;-59
2023/08/21 01:06:53;;;;;;;1.90;1.00;;;;;;;;;;5132775;28;20051;-60
2023/08/21 01:09:26;;;;;;;2.03;1.17;;;;;;;;;;5120928;28;20484;-59
2023/08/21 01:11:56;;;;;;;4.32;0.95;;;;;;;;;;5112083;28;20051;-59
2023/08/21 01:14:26;;;;;;;1.58;1.00;;;;;;;;;;5112139;28;20059;-60
2023/08/21 01:16:54;;;;;;;4.15;1.20;;;;;;;;;;5115053;28;20059;-59
2023/08/21 01:19:25;;;;;;;3.50;1.35;;;;;;;;;;5115904;28;20058;-59
2023/08/21 01:21:52;;;;;;;1.65;1.05;;;;;;;;;;5116005;28;20400;-59
2023/08/21 01:24:21;;;;;;;4.68;1.42;;;;;;;;;;5115860;28;20480;-60
2023/08/21 01:26:48;;;;;;;1.40;1.00;;;;;;;;;;5115966;28;20066;-59
2023/08/21 01:29:15;;;;;;;1.70;0.93;;;;;;;;;;5115661;28;20062;-60
2023/08/21 01:31:46;;;;;;;2.38;1.27;;;;;;;;;;5115675;28;20058;-60
2023/08/21 01:34:14;;;;;;;2.03;0.95;;;;;;;;;;5115901;28;20408;-60
2023/08/21 01:36:41;;;;;;;2.50;1.55;;;;;;;;;;5115281;28;20063;-60
2023/08/21 01:39:08;;;;;;;4.05;1.83;;;;;;;;;;5115262;28;20229;-60
2023/08/21 01:41:36;;;;;;;2.10;1.23;;;;;;;;;;5115088;28;20043;-59
2023/08/21 01:44:03;;;;;;;1.52;1.23;;;;;;;;;;5115462;28;20476;-60
2023/08/21 01:46:29;;;;;;;2.45;1.30;;;;;;;;;;5115719;28;20058;-60
2023/08/21 01:48:56;;;;;;;2.08;1.05;;;;;;;;;;5115425;28;20408;-60
2023/08/21 01:51:23;;;;;;;2.30;1.33;;;;;;;;;;5115342;28;20404;-60
2023/08/21 01:53:50;;;;;;;2.47;1.20;;;;;;;;;;5121420;27;20051;-59
2023/08/21 01:56:16;;;;;;;2.20;1.42;;;;;;;;;;5136119;27;20344;-60
2023/08/21 01:58:45;;;;;;;2.17;1.35;;;;;;;;;;5135486;27;20047;-59
2023/08/21 02:01:11;;;;;;;1.48;1.00;;;;;;;;;;5135163;27;20050;-60
2023/08/21 02:03:38;;;;;;;2.13;1.50;;;;;;;;;;5135759;27;20209;-60
2023/08/21 02:06:05;;;;;;;2.05;1.20;;;;;;;;;;5135769;27;20062;-60
2023/08/21 02:08:32;;;;;;;1.42;0.77;;;;;;;;;;5135676;27;20525;-60
2023/08/21 02:10:59;;;;;;;1.73;0.98;;;;;;;;;;5135491;27;20066;-60
2023/08/21 02:13:26;;;;;;;3.13;1.63;;;;;;;;;;5135548;27;20074;-59
2023/08/21 02:15:54;;;;;;;2.65;1.05;;;;;;;;;;5135513;27;20060;-60
2023/08/21 02:18:21;;;;;;;2.95;1.40;;;;;;;;;;5135203;27;20062;-60
2023/08/21 02:20:49;;;;;;;3.88;1.90;;;;;;;;;;5135504;27;20055;-60
2023/08/21 02:23:16;;;;;;;2.03;1.20;;;;;;;;;;5135332;27;20055;-59
2023/08/21 02:25:43;;;;;;;3.03;1.65;;;;;;;;;;5135310;27;20058;-59
2023/08/21 02:28:09;;;;;;;2.53;1.10;;;;;;;;;;5134329;27;20058;-59
2023/08/21 02:30:36;;;;;;;1.80;1.20;;;;;;;;;;5135228;27;20051;-59
2023/08/21 02:33:05;;;;;;;1.77;1.05;;;;;;;;;;5134771;27;20499;-60
2023/08/21 02:35:31;;;;;;;2.25;1.45;;;;;;;;;;5134680;27;20495;-60
2023/08/21 02:37:58;;;;;;;2.65;1.02;;;;;;;;;;5134671;27;20055;-59
2023/08/21 02:40:25;;;;;;;2.17;1.20;;;;;;;;;;5135070;27;20411;-58
2023/08/21 02:42:52;;;;;;;2.90;1.45;;;;;;;;;;5134995;27;20471;-60
2023/08/21 02:45:19;;;;;;;4.25;1.42;;;;;;;;;;5134706;27;20145;-60
2023/08/21 02:47:45;;;;;;;2.67;1.30;;;;;;;;;;5134611;27;20062;-60
2023/08/21 02:50:14;;;;;;;2.20;1.40;;;;;;;;;;5134643;27;20058;-60
2023/08/21 02:52:40;;;;;;;2.47;1.40;;;;;;;;;;5134650;27;20039;-60
2023/08/21 02:55:07;;;;;;;2.38;1.20;;;;;;;;;;5134631;27;20058;-60
2023/08/21 02:57:34;;;;;;;2.53;1.38;;;;;;;;;;5134663;27;20399;-59
2023/08/21 03:00:01;;;;;;;1.83;0.85;;;;;;;;;;5134353;27;20058;-59
2023/08/21 03:02:28;;;;;;;2.05;1.20;;;;;;;;;;5134345;27;20055;-60
2023/08/21 03:04:55;;;;;;;2.03;1.45;;;;;;;;;;5134274;27;20062;-59
2023/08/21 03:07:23;;;;;;;2.83;1.45;;;;;;;;;;5134365;27;20514;-59
2023/08/21 03:09:51;;;;;;;3.38;1.70;;;;;;;;;;5134041;27;20062;-59
2023/08/21 03:12:17;;;;;;;1.77;1.10;;;;;;;;;;5134312;27;20051;-60
2023/08/21 03:14:44;;;;;;;2.28;1.10;;;;;;;;;;5134211;27;20051;-60
2023/08/21 03:17:11;;;;;;;2.33;1.20;;;;;;;;;;5133988;27;20062;-60
2023/08/21 03:19:38;;;;;;;1.92;1.27;;;;;;;;;;5134016;27;20050;-59
2023/08/21 03:22:05;;;;;;;1.60;0.90;;;;;;;;;;5134133;27;20055;-60
2023/08/21 03:24:33;;;;;;;1.95;1.05;;;;;;;;;;5133836;27;20062;-59
2023/08/21 03:26:59;;;;;;;2.25;1.30;;;;;;;;;;5133830;27;20055;-60
2023/08/21 03:29:26;;;;;;;3.50;2.00;;;;;;;;;;5133718;27;20062;-60
2023/08/21 03:31:53;;;;;;;2.53;1.25;;;;;;;;;;5134061;27;20055;-59
2023/08/21 03:34:20;;;;;;;2.22;1.33;;;;;;;;;;5133890;27;20062;-61
2023/08/21 03:36:47;;;;;;;4.47;1.70;;;;;;;;;;5133452;27;20070;-59
2023/08/21 03:39:14;;;;;;;2.70;1.50;;;;;;;;;;5133316;27;20131;-59
2023/08/21 03:41:42;;;;;;;2.10;1.42;;;;;;;;;;5133507;27;20054;-59
2023/08/21 03:44:08;;;;;;;2.30;1.27;;;;;;;;;;5133375;27;20059;-60
2023/08/21 03:46:35;;;;;;;2.40;1.52;;;;;;;;;;5133676;27;20066;-60
2023/08/21 03:49:02;;;;;;;2.10;1.20;;;;;;;;;;5133502;27;20055;-60
2023/08/21 03:51:29;;;;;;;4.60;1.70;;;;;;;;;;5133700;27;20066;-61
2023/08/21 03:53:56;;;;;;;2.42;1.40;;;;;;;;;;5133452;27;20054;-59
2023/08/21 03:56:23;;;;;;;3.90;1.40;;;;;;;;;;5133839;27;20047;-60
2023/08/21 03:58:51;;;;;;;4.10;1.42;;;;;;;;;;5133602;27;20078;-60
2023/08/21 04:01:18;;;;;;;2.30;1.25;;;;;;;;;;5133806;27;20050;-59
2023/08/21 04:03:44;;;;;;;2.40;1.70;;;;;;;;;;5133539;27;20047;-59
2023/08/21 04:06:11;;;;;;;3.20;2.03;;;;;;;;;;5133639;27;20050;-60
2023/08/21 04:08:38;;;;;;;2.97;1.42;;;;;;;;;;5133154;27;20062;-59
2023/08/21 04:11:05;;;;;;;2.83;1.75;;;;;;;;;;5133524;27;20074;-60
2023/08/21 04:13:32;;;;;;;2.65;1.63;;;;;;;;;;5132976;27;20065;-59
2023/08/21 04:16:00;;;;;;;3.35;1.67;;;;;;;;;;5133452;28;20051;-59
2023/08/21 04:18:27;;;;;;;2.67;1.77;;;;;;;;;;5133316;28;20058;-59
2023/08/21 04:20:53;;;;;;;2.35;1.33;;;;;;;;;;5133378;28;20062;-60
2023/08/21 04:23:20;;;;;;;6.85;1.90;;;;;;;;;;5133359;28;20055;-59
2023/08/21 04:25:47;;;;;;;1.85;1.25;;;;;;;;;;5133246;28;20380;-59
2023/08/21 04:28:14;;;;;;;1.90;1.40;;;;;;;;;;5132959;28;20411;-59
2023/08/21 04:30:41;;;;;;;2.75;1.58;;;;;;;;;;5133328;28;20058;-60
2023/08/21 04:33:09;;;;;;;3.55;1.33;;;;;;;;;;5132863;28;20051;-60
2023/08/21 04:35:37;;;;;;;2.90;1.10;;;;;;;;;;5132733;28;20059;-60
2023/08/21 04:38:04;;;;;;;3.17;1.73;;;;;;;;;;5132707;28;20051;-60
2023/08/21 04:40:31;;;;;;;2.40;1.70;;;;;;;;;;5133172;28;20055;-59
2023/08/21 04:43:00;;;;;;;3.58;1.35;;;;;;;;;;5133161;28;20373;-59
2023/08/21 04:45:27;;;;;;;3.35;1.65;;;;;;;;;;5132917;28;20059;-59
2023/08/21 04:47:55;;;;;;;2.95;1.20;;;;;;;;;;5133308;28;20104;-58
2023/08/21 04:50:23;;;;;;;1.98;1.25;;;;;;;;;;5133398;27;20400;-59
2023/08/21 04:52:50;;;;;;;2.67;1.27;;;;;;;;;;5136907;27;20051;-60
2023/08/21 04:55:17;;;;;;;3.85;1.98;;;;;;;;;;5136722;27;20137;-60
2023/08/21 04:57:44;;;;;;;2.53;2.13;;;;;;;;;;5136945;27;20055;-60
2023/08/21 05:00:11;;;;;;;1.77;1.23;;;;;;;;;;5136274;27;20047;-60
2023/08/21 05:02:38;;;;;;;2.53;1.40;;;;;;;;;;5136322;27;20058;-60
2023/08/21 05:05:05;;;;;;;2.67;1.55;;;;;;;;;;5136056;27;20058;-60
2023/08/21 05:07:34;;;;;;;6.55;1.67;;;;;;;;;;5136220;27;20051;-59
2023/08/21 05:10:01;;;;;;;4.40;1.70;;;;;;;;;;5136322;27;20055;-59
2023/08/21 05:12:28;;;;;;;2.55;1.52;;;;;;;;;;5136109;27;20054;-60
2023/08/21 05:14:55;;;;;;;5.15;1.92;;;;;;;;;;5136188;27;20058;-59
2023/08/21 05:17:21;;;;;;;2.88;1.40;;;;;;;;;;5136246;27;20047;-59
2023/08/21 05:19:48;;;;;;;2.58;1.50;;;;;;;;;;5136152;27;20051;-60
2023/08/21 05:22:15;;;;;;;2.50;1.50;;;;;;;;;;5135904;27;20051;-60
2023/08/21 05:24:43;;;;;;;2.30;1.80;;;;;;;;;;5136239;27;20058;-59
2023/08/21 05:27:10;;;;;;;4.18;1.80;;;;;;;;;;5136217;27;20438;-59
2023/08/21 05:29:37;;;;;;;2.80;1.52;;;;;;;;;;5136205;27;20055;-60
2023/08/21 05:32:04;;;;;;;2.40;1.52;;;;;;;;;;5136040;27;20065;-60
2023/08/21 05:34:30;;;;;;;2.97;1.83;;;;;;;;;;5135609;27;20051;-59
2023/08/21 05:36:57;;;;;;;2.60;1.35;;;;;;;;;;5135566;27;20170;-59
2023/08/21 05:39:24;;;;;;;2.33;1.58;;;;;;;;;;5135674;27;20051;-59
2023/08/21 05:41:52;;;;;;;2.97;1.60;;;;;;;;;;5135950;27;20055;-60
2023/08/21 05:44:19;;;;;;;2.67;1.67;;;;;;;;;;5135692;27;20058;-59
2023/08/21 05:46:46;;;;;;;3.95;1.88;;;;;;;;;;5135743;27;20051;-59
2023/08/21 05:49:13;;;;;;;4.60;1.77;;;;;;;;;;5135744;27;20054;-59
2023/08/21 05:51:39;;;;;;;3.05;1.60;;;;;;;;;;5135815;27;20534;-60
2023/08/21 05:54:06;;;;;;;3.33;1.67;;;;;;;;;;5135543;27;20070;-60
2023/08/21 05:56:33;;;;;;;5.20;1.98;;;;;;;;;;5135464;27;20047;-60
2023/08/21 05:59:01;;;;;;;3.20;1.98;;;;;;;;;;5135612;27;20480;-60
2023/08/21 06:01:28;;;;;;;3.33;2.13;;;;;;;;;;5135370;27;20066;-60
2023/08/21 06:03:55;;;;;;;5.43;1.95;;;;;;;;;;5134450;27;20510;-60
2023/08/21 06:06:21;;;;;;;3.65;2.00;;;;;;;;;;5135602;27;20372;-60
2023/08/21 06:08:48;;;;;;;2.63;1.73;;;;;;;;;;5135165;27;20058;-59
2023/08/21 06:11:15;;;;;;;2.67;1.88;;;;;;;;;;5135561;27;20481;-59
2023/08/21 06:13:42;;;;;;;2.38;1.67;;;;;;;;;;5135353;27;20375;-60
2023/08/21 06:16:10;;;;;;;3.15;1.80;;;;;;;;;;5135373;27;20051;-60
2023/08/21 06:18:37;;;;;;;2.83;2.03;;;;;;;;;;5134852;27;20055;-60
2023/08/21 06:21:04;;;;;;;4.25;2.25;;;;;;;;;;5135178;27;20046;-60
2023/08/21 06:23:30;;;;;;;3.17;1.67;;;;;;;;;;5135203;27;20047;-60
2023/08/21 06:25:57;;;;;;;2.53;1.65;;;;;;;;;;5135329;27;20055;-60
2023/08/21 06:28:24;;;;;;;3.92;2.08;;;;;;;;;;5135048;27;20051;-60
2023/08/21 06:30:56;;;;;;;2.80;1.75;;;;;;;;;;5135222;27;20391;-60
2023/08/21 06:33:24;;;;;;;2.65;1.88;;;;;;;;;;5134553;27;20047;-60
2023/08/21 06:35:51;;;;;;;3.65;2.00;;;;;;;;;;5125664;27;20063;-60
2023/08/21 06:38:17;;;;;;;4.35;2.10;;;;;;;;;;5113874;28;20059;-60
2023/08/21 06:40:45;;;;;;;2.30;1.60;;;;;;;;;;5114280;28;20381;-60
2023/08/21 06:43:12;;;;;;;3.97;2.00;;;;;;;;;;5113845;28;20048;-59
2023/08/21 06:45:39;;;;;;;2.58;1.60;;;;;;;;;;5113937;28;20056;-60
2023/08/21 06:48:05;;;;;;;4.88;2.03;;;;;;;;;;5113920;28;20047;-60
2023/08/21 06:50:34;;;;;;;3.92;2.47;;;;;;;;;;5113803;28;20060;-60
2023/08/21 06:53:00;;;;;;;3.20;1.80;;;;;;;;;;5113766;28;20058;-60
2023/08/21 06:55:27;;;;;;;7.25;2.25;;;;;;;;;;5113514;28;20064;-60
2023/08/21 06:57:54;;;;;;;4.07;1.52;;;;;;;;;;5113840;28;20055;-60
2023/08/21 07:00:21;;;;;;;3.20;2.03;;;;;;;;;;5114034;28;20052;-60
2023/08/21 07:02:48;;;;;;;3.05;1.88;;;;;;;;;;5113629;28;20074;-60
2023/08/21 07:05:15;;;;;;;4.97;1.55;;;;;;;;;;5113679;28;20054;-60
2023/08/21 07:07:43;;;;;;;2.35;1.27;;;;;;;;;;5113246;28;20081;-60
2023/08/21 07:10:10;;;;;;;2.53;1.70;;;;;;;;;;5112645;28;20082;-60
2023/08/21 07:12:36;;;;;;;3.13;1.67;;;;;;;;;;5112911;28;20062;-60
2023/08/21 07:15:04;;;;;;;4.25;2.00;;;;;;;;;;5112436;28;20058;-60
2023/08/21 07:17:30;;;;;;;4.15;1.75;;;;;;;;;;5113123;28;20056;-60
2023/08/21 07:19:57;;;;;;;3.35;2.40;;;;;;;;;;5112597;28;20058;-61
2023/08/21 07:22:24;;;;;;;3.50;1.60;;;;;;;;;;5113323;28;20056;-61
2023/08/21 07:24:52;;;;;;;4.15;1.58;;;;;;;;;;5112917;28;20043;-60
2023/08/21 07:27:19;;;;;;;4.17;2.43;;;;;;;;;;5113203;28;20056;-60
2023/08/21 07:29:46;;;;;;;4.47;1.58;;;;;;;;;;5112986;28;20392;-59
2023/08/21 07:32:13;;;;;;;2.30;1.60;;;;;;;;;;5113227;28;20062;-60
2023/08/21 07:34:39;;;;;;;3.15;1.85;;;;;;;;;;5112943;28;20047;-60
2023/08/21 07:37:08;;;;;;;4.43;1.63;;;;;;;;;;5132321;27;20496;-60
2023/08/21 07:39:35;;;;;;;4.18;1.35;;;;;;;;;;5133543;27;20074;-59
2023/08/21 07:42:03;;;;;;;3.38;1.88;;;;;;;;;;5133357;27;20062;-60
2023/08/21 07:44:30;;;;;;;3.47;1.48;;;;;;;;;;5133316;27;20070;-60
2023/08/21 07:46:56;;;;;;;2.42;1.80;;;;;;;;;;5133715;27;20054;-60
2023/08/21 07:49:23;;;;;;;4.13;1.73;;;;;;;;;;5133336;27;20510;-60
2023/08/21 07:51:50;;;;;;;2.95;1.88;;;;;;;;;;5133651;27;20066;-60
2023/08/21 07:54:17;;;;;;;3.85;1.58;;;;;;;;;;5132752;27;20047;-60
2023/08/21 07:56:44;;;;;;;3.65;1.50;;;;;;;;;;5133488;27;20073;-60
2023/08/21 07:59:12;;;;;;;2.85;1.77;;;;;;;;;;5132949;27;20062;-59
2023/08/21 08:01:39;;;;;;;2.30;1.48;;;;;;;;;;5133414;27;20055;-59
2023/08/21 08:04:10;;;;;;;5.13;1.90;;;;;;;;;;5132925;27;20047;-60
2023/08/21 08:06:37;;;;;;;2.60;1.67;;;;;;;;;;5133278;27;20055;-60
2023/08/21 08:09:04;;;;;;;1.98;1.60;;;;;;;;;;5132867;27;20058;-60
2023/08/21 08:11:31;;;;;;;1.67;1.00;;;;;;;;;;5133349;27;20062;-60
2023/08/21 08:13:58;;;;;;;1.58;1.08;;;;;;;;;;5133241;28;20373;-63
2023/08/21 08:16:26;;;;;;;2.33;1.10;;;;;;;;;;5133291;28;20070;-61
2023/08/21 08:18:53;;;;;;;2.08;1.35;;;;;;;;;;5133434;28;20165;-61
2023/08/21 08:21:20;;;;;;;4.55;1.17;;;;;;;;;;5133575;28;20475;-61
2023/08/21 08:23:47;;;;;;;1.30;0.90;;;;;;;;;;5132961;28;20055;-61
2023/08/21 08:26:14;;;;;;;2.80;1.42;;;;;;;;;;5135300;27;20055;-61
2023/08/21 08:28:40;;;;;;;2.05;1.48;;;;;;;;;;5137470;27;20051;-59
2023/08/21 08:31:08;;;;;;;1.85;1.50;;;;;;;;;;5137642;27;20051;-60
2023/08/21 08:33:36;;;;;;;3.35;1.30;;;;;;;;;;5137556;27;20051;-61
2023/08/21 08:36:03;;;;;;;3.03;1.45;;;;;;;;;;5137152;27;20463;-61
2023/08/21 08:38:30;;;;;;;2.00;1.17;;;;;;;;;;5137459;27;20459;-60
2023/08/21 08:40:57;;;;;;;1.60;1.10;;;;;;;;;;5137334;27;20062;-61
2023/08/21 08:43:25;;;;;;;2.92;1.30;;;;;;;;;;5136972;27;20050;-61
2023/08/21 08:45:53;;;;;;;1.83;1.08;;;;;;;;;;5136731;27;20047;-60
2023/08/21 08:48:21;;;;;;;3.50;1.42;;;;;;;;;;5136970;27;20081;-61
2023/08/21 08:50:50;;;;;;;1.37;1.07;;;;;;;;;;5137129;27;20051;-60
2023/08/21 08:53:17;;;;;;;2.13;1.20;;;;;;;;;;5136911;27;20473;-60
2023/08/21 08:55:44;;;;;;;1.73;1.30;;;;;;;;;;5137011;27;20050;-60
2023/08/21 08:58:10;;;;;;;2.17;1.33;;;;;;;;;;5136751;27;20062;-61
2023/08/21 09:00:37;;;;;;;3.08;1.50;;;;;;;;;;5136670;27;20047;-60
2023/08/21 09:03:04;;;;;;;2.03;1.20;;;;;;;;;;5136677;27;20047;-60
2023/08/21 09:05:32;;;;;;;3.05;1.30;;;;;;;;;;5136685;27;20050;-60
2023/08/21 09:08:14;;;;;;;3.95;1.40;;;;;;;;;;5136753;27;20463;-60
2023/08/21 09:10:43;;;;;;;1.90;1.30;;;;;;;;;;5133326;27;20051;-61
2023/08/21 09:13:10;;;;;;;1.85;1.00;;;;;;;;;;5136910;27;20047;-61
2023/08/21 09:15:37;;;;;;;1.58;1.00;;;;;;;;;;5136637;27;20502;-61
2023/08/21 09:18:04;;;;;;;2.07;1.37;;;;;;;;;;5136311;27;20066;-61
2023/08/21 09:20:35;;;;;;;1.55;1.05;;;;;;;;;;5136484;27;20047;-61
2023/08/21 09:23:03;;;;;;;2.45;1.17;;;;;;;;;;5136464;27;20054;-61
2023/08/21 09:25:34;;;;;;;3.65;1.45;;;;;;;;;;5136393;27;20051;-61
2023/08/21 09:28:07;;;;;;;2.92;1.10;;;;;;;;;;5136627;27;20058;-62
2023/08/21 09:30:50;;;;;;;2.30;1.00;;;;;;;;;;5135767;27;20046;-60
2023/08/21 09:33:20;;;;;;;2.00;1.10;;;;;;;;;;5135753;27;20051;-60
2023/08/21 09:35:47;;;;;;;1.55;1.00;;;;;;;;;;5135648;27;20057;-61
2023/08/21 09:38:16;;;;;;;2.78;1.00;;;;;;;;;;5135519;27;20054;-61
2023/08/21 09:40:44;;;;;;;1.70;0.88;;;;;;;;;;5136326;27;20059;-60
2023/08/21 09:43:12;;;;;;;1.95;1.20;;;;;;;;;;5135710;27;20058;-61
2023/08/21 09:45:39;;;;;;;1.55;1.00;;;;;;;;;;5135689;27;20050;-61
2023/08/21 09:48:07;;;;;;;1.20;0.85;;;;;;;;;;5136303;27;20407;-61
2023/08/21 09:50:34;;;;;;;1.83;0.90;;;;;;;;;;5135930;27;20066;-61
2023/08/21 09:53:01;;;;;;;2.88;1.10;;;;;;;;;;5136043;27;20055;-62
2023/08/21 09:55:31;;;;;;;1.98;1.30;;;;;;;;;;5135562;27;20047;-62
2023/08/21 09:57:59;;;;;;;2.88;1.05;;;;;;;;;;5135841;27;20062;-62
2023/08/21 10:00:29;;;;;;;3.47;1.13;;;;;;;;;;5135782;27;20051;-62
2023/08/21 10:02:59;;;;;;;2.45;1.10;;;;;;;;;;5135928;27;20058;-62
2023/08/21 10:05:26;;;;;;;3.20;1.17;;;;;;;;;;5135708;27;20047;-62
2023/08/21 10:07:55;;;;;;;1.10;0.80;;;;;;;;;;5135927;27;20055;-62
2023/08/21 10:10:21;;;;;;;2.00;1.67;;;;;;;;;;5135637;27;20074;-62
2023/08/21 10:12:49;;;;;;;1.80;0.90;;;;;;;;;;5135668;27;20051;-62
2023/08/21 10:15:16;;;;;;;2.70;1.15;;;;;;;;;;5135187;27;20066;-62
2023/08/21 10:17:42;;;;;;;;;;;;;;;;;;5135677;27;20415;-62
2023/08/21 10:20:11;;;;;;;1.67;1.10;;;;;;;;;;5135545;27;19923;-61
2023/08/21 10:22:39;;;;;;;2.55;1.23;;;;;;;;;;5134839;27;20051;-62
2023/08/21 10:25:14;;;;;;;3.55;1.58;;;;;;;;;;5135299;27;20059;-62
2023/08/21 10:27:41;;;;;;;1.80;1.00;;;;;;;;;;5135479;27;20058;-61
2023/08/21 10:30:08;;;;;;;;;;;;;;;;;;5135645;27;20495;-61
2023/08/21 10:32:34;;;;;;;2.10;1.23;;;;;;;;;;5135297;27;19923;-61
2023/08/21 10:35:01;;;;;;;1.98;1.00;;;;;;;;;;5134562;27;20051;-61
2023/08/21 10:37:29;;;;;;;2.42;1.10;;;;;;;;;;5135137;27;20066;-61
2023/08/21 10:39:57;;;;;;;2.95;1.10;;;;;;;;;;5134820;27;20047;-62
2023/08/21 10:42:38;;;;;;;2.28;1.20;;;;;;;;;;5135248;27;20051;-62
2023/08/21 10:45:11;;;;;;;1.95;1.00;;;;;;;;;;5134450;27;20125;-61
2023/08/21 10:47:38;;;;;;;2.03;1.23;;;;;;;;;;5134381;27;20051;-61
2023/08/21 10:50:06;;;;;;;1.23;0.90;;;;;;;;;;5134143;27;20058;-61
2023/08/21 10:52:36;;;;;;;2.38;1.00;;;;;;;;;;5134550;27;20097;-60
2023/08/21 10:55:03;;;;;;;2.30;1.20;;;;;;;;;;5134315;27;20047;-61
2023/08/21 10:57:31;;;;;;;2.10;1.00;;;;;;;;;;5134493;27;20058;-61
2023/08/21 10:59:58;;;;;;;3.22;1.48;;;;;;;;;;5134571;27;20063;-61
2023/08/21 11:02:26;;;;;;;1.55;0.90;;;;;;;;;;5134417;27;20121;-62
2023/08/21 11:04:53;;;;;;;2.92;1.35;;;;;;;;;;5134524;27;20051;-62
2023/08/21 11:07:20;;;;;;;2.20;1.10;;;;;;;;;;5134546;27;20047;-61
2023/08/21 11:09:49;;;;;;;1.98;1.33;;;;;;;;;;5134253;27;20479;-61
2023/08/21 11:12:17;;;;;;;1.83;1.00;;;;;;;;;;5134321;27;20074;-61
2023/08/21 11:14:44;;;;;;;1.52;1.00;;;;;;;;;;5134356;27;20380;-61
2023/08/21 11:17:10;;;;;;;1.55;0.88;;;;;;;;;;5134025;27;20051;-61
2023/08/21 11:19:38;;;;;;;1.98;1.25;;;;;;;;;;5133753;27;20062;-61
2023/08/21 11:22:06;;;;;;;1.77;0.90;;;;;;;;;;5134114;27;20077;-61
2023/08/21 11:24:40;;;;;;;2.40;1.25;;;;;;;;;;5134143;27;20066;-60
2023/08/21 11:27:09;;;;;;;2.58;1.30;;;;;;;;;;5133739;27;20483;-61
2023/08/21 11:29:39;;;;;;;1.20;0.80;;;;;;;;;;5133543;27;20046;-61
2023/08/21 11:32:10;;;;;;;2.05;1.35;;;;;;;;;;5133943;27;20388;-60
2023/08/21 11:34:37;;;;;;;2.30;0.95;;;;;;;;;;5133569;27;20063;-61
2023/08/21 11:37:05;;;;;;;1.87;1.43;;;;;;;;;;5133512;27;20124;-61
2023/08/21 11:39:44;;;;;;;3.08;1.63;;;;;;;;;;5133936;27;20471;-60
2023/08/21 11:42:13;;;;;;;2.28;0.95;;;;;;;;;;5133944;27;20054;-60
2023/08/21 11:44:41;;;;;;;2.85;1.30;;;;;;;;;;5133704;27;20055;-60
2023/08/21 11:47:07;;;;;;;2.22;1.13;;;;;;;;;;5133569;27;20479;-60
2023/08/21 11:49:37;;;;;;;3.22;1.67;;;;;;;;;;5133773;27;20051;-61
2023/08/21 11:52:04;;;;;;;1.98;1.17;;;;;;;;;;5134132;27;20046;-61
2023/08/21 11:54:33;;;;;;;2.08;1.20;;;;;;;;;;5133640;27;20051;-60
2023/08/21 11:56:59;;;;;;;1.70;1.02;;;;;;;;;;5133646;27;20047;-61
2023/08/21 11:59:30;;;;;;;4.45;1.02;;;;;;;;;;5133225;27;20055;-61
2023/08/21 12:01:57;;;;;;;1.27;0.90;;;;;;;;;;5133146;27;20062;-61
2023/08/21 12:04:25;;;;;;;2.30;1.40;;;;;;;;;;5133349;27;20055;-61
2023/08/21 12:06:51;;;;;;;;;;;;;;;;;;5134188;27;20061;-61
2023/08/21 12:09:18;;;;;;;1.90;1.20;;;;;;;;;;5133607;27;20280;-61
2023/08/21 12:11:45;;;;;;;;;;;;;;;;;;5133422;27;20047;-60
2023/08/21 12:14:12;;;;;;;1.77;0.82;;;;;;;;;;5133140;27;19920;-61
2023/08/21 12:16:40;;;;;;;3.03;1.27;;;;;;;;;;5133062;28;20529;-61
2023/08/21 12:19:09;;;;;;;2.30;1.13;;;;;;;;;;5133121;28;20059;-61
2023/08/21 12:21:37;;;;;;;2.35;1.08;;;;;;;;;;5133167;28;20058;-61
2023/08/21 12:24:04;;;;;;;2.08;1.00;;;;;;;;;;5133440;28;20062;-61
2023/08/21 12:26:31;;;;;;;1.42;1.10;;;;;;;;;;5133587;28;20058;-61
2023/08/21 12:28:58;;;;;;;1.60;1.05;;;;;;;;;;5133265;28;20054;-61
2023/08/21 12:31:25;;;;;;;2.33;0.90;;;;;;;;;;5133549;28;20395;-61
2023/08/21 12:33:54;;;;;;;2.65;1.63;;;;;;;;;;5133075;28;20055;-61
2023/08/21 12:36:20;;;;;;;2.28;0.90;;;;;;;;;;5132923;28;20047;-61
2023/08/21 12:38:47;;;;;;;1.75;1.25;;;;;;;;;;5133204;28;20114;-61
2023/08/21 12:41:14;;;;;;;2.03;1.13;;;;;;;;;;5133491;28;20150;-61
2023/08/21 12:43:41;;;;;;;2.72;1.55;;;;;;;;;;5132833;28;20074;-61
2023/08/21 12:46:08;;;;;;;3.10;1.20;;;;;;;;;;5133117;28;20091;-61
2023/08/21 12:48:34;;;;;;;1.73;1.20;;;;;;;;;;5133179;28;20472;-60
2023/08/21 12:51:03;;;;;;;1.23;0.80;;;;;;;;;;5133071;28;20055;-61
2023/08/21 12:53:30;;;;;;;2.85;1.27;;;;;;;;;;5132856;28;20055;-61
2023/08/21 12:55:56;;;;;;;1.83;0.90;;;;;;;;;;5133110;28;20361;-61
2023/08/21 12:58:23;;;;;;;1.65;1.00;;;;;;;;;;5132445;28;20062;-61
2023/08/21 13:00:50;;;;;;;2.13;1.15;;;;;;;;;;5133267;28;20054;-60
2023/08/21 13:03:17;;;;;;;1.40;0.70;;;;;;;;;;5132366;28;20054;-60
2023/08/21 13:05:44;;;;;;;2.23;1.20;;;;;;;;;;5132763;28;20058;-60
2023/08/21 13:08:12;;;;;;;2.17;1.00;;;;;;;;;;5132896;28;20058;-60
2023/08/21 13:10:39;;;;;;;1.20;0.80;;;;;;;;;;5132704;28;20055;-61
2023/08/21 13:13:06;;;;;;;1.83;1.15;;;;;;;;;;5113207;28;20492;-60
2023/08/21 13:15:32;;;;;;;1.45;0.98;;;;;;;;;;5115899;28;20400;-61
2023/08/21 13:18:00;;;;;;;2.40;1.07;;;;;;;;;;5115662;28;20048;-61
2023/08/21 13:20:27;;;;;;;;;;;;;;;;;;5116144;28;20059;-61
2023/08/21 13:22:53;;;;;;;2.00;0.90;;;;;;;;;;5115686;28;19919;-61
2023/08/21 13:25:23;;;;;;;7.30;1.30;;;;;;;;;;5115378;28;20405;-61
2023/08/21 13:27:50;;;;;;;2.35;1.50;;;;;;;;;;5115872;28;20052;-61
2023/08/21 13:30:17;;;;;;;1.42;1.05;;;;;;;;;;5116203;28;20062;-61
2023/08/21 13:32:44;;;;;;;3.93;1.17;;;;;;;;;;5115416;28;20052;-61
2023/08/21 13:35:11;;;;;;;1.50;0.80;;;;;;;;;;5112697;28;20056;-61
2023/08/21 13:37:38;;;;;;;1.02;0.60;;;;;;;;;;5095349;28;20051;-61
2023/08/21 13:40:10;;;;;;;1.75;1.23;;;;;;;;;;5094832;28;20048;-61
2023/08/21 13:42:41;;;;;;;2.08;1.05;;;;;;;;;;5095141;28;20056;-60
2023/08/21 13:45:10;;;;;;;1.55;1.00;;;;;;;;;;5095017;28;20151;-61
2023/08/21 13:47:37;;;;;;;1.10;0.80;;;;;;;;;;5094951;28;20055;-60
2023/08/21 13:50:05;;;;;;;1.03;0.80;;;;;;;;;;5095010;28;20048;-61
2023/08/21 13:52:32;;;;;;;3.42;1.85;;;;;;;;;;5094849;28;20052;-61
2023/08/21 13:54:59;;;;;;;2.13;1.40;;;;;;;;;;5094788;28;20052;-61
2023/08/21 13:57:26;;;;;;;2.88;1.10;;;;;;;;;;5094334;28;20064;-61
2023/08/21 13:59:54;;;;;;;3.30;1.03;;;;;;;;;;5094670;28;20445;-61
2023/08/21 14:02:22;;;;;;;1.50;0.90;;;;;;;;;;5094550;28;20055;-61
2023/08/21 14:04:49;;;;;;;2.67;0.90;;;;;;;;;;5094703;28;20056;-60
2023/08/21 14:07:16;;;;;;;2.38;0.80;;;;;;;;;;5094361;28;20147;-61
2023/08/21 14:09:43;;;;;;;1.98;1.00;;;;;;;;;;5094410;28;20528;-61
2023/08/21 14:12:10;;;;;;;2.65;1.10;;;;;;;;;;5102424;28;20062;-61
2023/08/21 14:14:37;;;;;;;5.55;1.33;;;;;;;;;;5114299;28;20055;-61
2023/08/21 14:17:05;;;;;;;1.80;0.98;;;;;;;;;;5114249;28;20381;-61
2023/08/21 14:19:32;;;;;;;1.60;1.00;;;;;;;;;;5114293;28;20051;-61
2023/08/21 14:21:59;;;;;;;3.97;2.03;;;;;;;;;;5114156;28;20052;-60
2023/08/21 14:24:26;;;;;;;1.90;1.20;;;;;;;;;;5112784;28;20052;-61
2023/08/21 14:26:52;;;;;;;2.38;1.45;;;;;;;;;;5114403;28;21028;-60
2023/08/21 14:29:19;;;;;;;1.55;1.00;;;;;;;;;;5113923;28;20051;-61
2023/08/21 14:31:48;;;;;;;2.15;1.00;;;;;;;;;;5114224;28;20055;-61
2023/08/21 14:34:16;;;;;;;2.30;1.50;;;;;;;;;;5113794;28;20058;-61
2023/08/21 14:36:43;;;;;;;2.15;1.63;;;;;;;;;;5130235;27;20051;-61
2023/08/21 14:39:11;;;;;;;2.50;1.00;;;;;;;;;;5134854;27;20058;-60
2023/08/21 14:41:38;;;;;;;1.95;1.17;;;;;;;;;;5134364;27;20047;-61
2023/08/21 14:44:05;;;;;;;2.00;1.08;;;;;;;;;;5134620;27;20395;-61
2023/08/21 14:46:32;;;;;;;1.95;1.27;;;;;;;;;;5134213;27;20055;-62